createdAt,value
2018-12-12T00:01:31.377Z,21.37
2018-12-12T00:04:03.694Z,22.33
2018-12-12T00:06:36.448Z,22.47
2018-12-12T00:09:08.394Z,21.60
2018-12-12T00:11:39.235Z,21.60
2018-12-12T00:14:10.069Z,22.23
2018-12-12T00:16:40.701Z,22.23
2018-12-12T00:19:10.821Z,21.93
2018-12-12T00:21:41.041Z,21.67
2018-12-12T00:24:11.584Z,21.70
2018-12-12T00:26:42.420Z,20.77
2018-12-12T00:29:13.241Z,21.27
2018-12-12T00:31:44.216Z,20.87
2018-12-12T00:34:14.094Z,21.70
2018-12-12T00:36:43.888Z,21.30
2018-12-12T00:39:14.752Z,21.00
2018-12-12T00:41:45.075Z,21.03
2018-12-12T00:44:15.497Z,21.17
2018-12-12T00:46:46.109Z,21.03
2018-12-12T00:49:16.859Z,20.73
2018-12-12T00:51:48.006Z,21.00
2018-12-12T00:54:19.148Z,21.03
2018-12-12T00:56:49.472Z,20.77
2018-12-12T00:59:19.898Z,20.87
2018-12-12T01:01:50.738Z,20.37
2018-12-12T01:04:21.260Z,20.07
2018-12-12T01:06:51.917Z,20.43
2018-12-12T01:09:21.942Z,19.87
2018-12-12T01:11:57.462Z,19.90
2018-12-12T01:14:28.206Z,20.93
2018-12-12T01:16:58.522Z,19.60
2018-12-12T01:19:29.049Z,20.53
2018-12-12T01:21:59.778Z,20.17
2018-12-12T01:24:30.450Z,20.33
2018-12-12T01:27:00.905Z,20.27
2018-12-12T01:29:30.857Z,20.10
2018-12-12T01:32:01.697Z,20.00
2018-12-12T01:34:33.301Z,19.17
2018-12-12T01:37:04.101Z,19.83
2018-12-12T01:39:34.825Z,19.03
2018-12-12T01:42:05.181Z,19.40
2018-12-12T01:44:35.260Z,18.90
2018-12-12T01:47:07.071Z,18.93
2018-12-12T01:49:38.169Z,18.47
2018-12-12T01:52:08.386Z,19.80
2018-12-12T01:57:07.601Z,18.90
2018-12-12T01:59:38.128Z,18.80
2018-12-12T02:02:09.581Z,18.93
2018-12-12T02:04:40.747Z,18.53
2018-12-12T02:07:10.913Z,18.13
2018-12-12T02:09:40.841Z,18.97
2018-12-12T02:12:11.694Z,18.60
2018-12-12T02:14:42.841Z,17.97
2018-12-12T02:17:13.786Z,18.57
2018-12-12T02:19:43.729Z,18.10
2018-12-12T02:22:14.423Z,18.17
2018-12-12T02:24:45.266Z,18.27
2018-12-12T02:27:16.102Z,17.80
2018-12-12T02:29:45.707Z,18.10
2018-12-12T02:32:16.669Z,18.37
2018-12-12T02:34:47.380Z,17.83
2018-12-12T02:37:18.218Z,18.33
2018-12-12T02:39:48.971Z,17.67
2018-12-12T02:42:19.893Z,17.40
2018-12-12T02:44:50.757Z,17.83
2018-12-12T02:47:20.921Z,17.27
2018-12-12T02:52:20.166Z,17.03
2018-12-12T02:54:51.818Z,16.77
2018-12-12T02:57:22.142Z,16.73
2018-12-12T03:02:23.818Z,16.50
2018-12-12T03:04:54.961Z,16.20
2018-12-12T03:07:25.314Z,16.47
2018-12-12T03:09:55.712Z,16.70
2018-12-12T03:12:25.317Z,17.17
2018-12-12T03:14:55.908Z,16.30
2018-12-12T03:17:26.381Z,16.77
2018-12-12T03:19:56.912Z,16.60
2018-12-12T03:22:27.545Z,15.93
2018-12-12T03:24:58.581Z,16.23
2018-12-12T03:27:29.113Z,15.57
2018-12-12T03:29:59.948Z,16.50
2018-12-12T03:32:30.475Z,16.60
2018-12-12T03:35:01.009Z,15.73
2018-12-12T03:37:31.840Z,15.60
2018-12-12T03:40:02.611Z,15.63
2018-12-12T03:42:32.999Z,15.70
2018-12-12T03:45:03.125Z,15.93
2018-12-12T03:47:33.958Z,15.70
2018-12-12T03:50:04.914Z,16.00
2018-12-12T03:52:35.329Z,16.07
2018-12-12T03:55:06.554Z,15.83
2018-12-12T03:57:36.487Z,15.70
2018-12-12T04:00:08.496Z,15.10
2018-12-12T04:02:39.289Z,16.10
2018-12-12T04:05:09.623Z,14.87
2018-12-12T04:07:40.128Z,14.77
2018-12-12T04:10:10.364Z,14.70
2018-12-12T04:12:40.483Z,15.50
2018-12-12T04:15:10.818Z,14.97
2018-12-12T04:17:41.537Z,14.37
2018-12-12T04:20:12.065Z,14.90
2018-12-12T04:22:42.289Z,14.20
2018-12-12T04:25:13.426Z,14.60
2018-12-12T04:27:43.965Z,14.20
2018-12-12T04:30:14.495Z,14.43
2018-12-12T04:32:45.241Z,14.30
2018-12-12T04:35:15.563Z,14.30
2018-12-12T04:37:45.802Z,14.50
2018-12-12T04:40:16.302Z,13.73
2018-12-12T04:42:46.718Z,14.33
2018-12-12T04:45:17.054Z,13.80
2018-12-12T04:47:48.064Z,13.83
2018-12-12T04:50:18.231Z,13.87
2018-12-12T04:52:48.956Z,13.83
2018-12-12T04:55:19.135Z,13.80
2018-12-12T04:57:49.330Z,13.70
2018-12-12T05:00:19.925Z,14.17
2018-12-12T05:02:50.302Z,13.63
2018-12-12T05:05:20.897Z,13.50
2018-12-12T05:07:51.817Z,13.37
2018-12-12T05:10:22.358Z,12.97
2018-12-12T05:12:53.184Z,13.23
2018-12-12T05:15:23.710Z,13.10
2018-12-12T05:17:54.236Z,13.47
2018-12-12T05:20:24.565Z,13.37
2018-12-12T05:22:55.433Z,13.00
2018-12-12T05:25:25.219Z,13.23
2018-12-12T05:27:55.742Z,13.60
2018-12-12T05:30:26.001Z,13.13
2018-12-12T05:32:56.799Z,12.90
2018-12-12T05:35:27.370Z,12.60
2018-12-12T05:37:57.860Z,11.90
2018-12-12T05:40:28.701Z,13.07
2018-12-12T05:42:59.536Z,12.60
2018-12-12T05:45:30.684Z,12.20
2018-12-12T05:48:01.511Z,12.40
2018-12-12T05:50:32.350Z,11.70
2018-12-12T05:53:03.181Z,12.53
2018-12-12T05:55:33.458Z,12.70
2018-12-12T05:58:03.932Z,12.23
2018-12-12T06:00:34.769Z,12.30
2018-12-12T06:03:05.727Z,12.07
2018-12-12T06:05:35.833Z,12.23
2018-12-12T06:08:06.373Z,12.23
2018-12-12T06:10:36.664Z,12.53
2018-12-12T06:13:07.851Z,12.20
2018-12-12T06:15:38.626Z,12.10
2018-12-12T06:18:10.017Z,11.80
2018-12-12T06:20:40.660Z,12.13
2018-12-12T06:23:10.797Z,11.70
2018-12-12T06:25:41.601Z,11.50
2018-12-12T06:28:13.358Z,11.00
2018-12-12T06:30:43.677Z,11.70
2018-12-12T06:33:14.214Z,11.57
2018-12-12T06:35:43.821Z,11.57
2018-12-12T06:38:14.653Z,11.53
2018-12-12T06:40:45.187Z,11.10
2018-12-12T06:43:15.725Z,11.13
2018-12-12T06:45:46.675Z,11.70
2018-12-12T06:48:16.778Z,11.67
2018-12-12T06:50:47.302Z,11.10
2018-12-12T06:53:17.526Z,11.53
2018-12-12T06:55:47.728Z,11.73
2018-12-12T06:58:18.272Z,11.20
2018-12-12T07:00:48.507Z,11.40
2018-12-12T07:03:20.247Z,11.53
2018-12-12T07:05:51.084Z,11.07
2018-12-12T07:08:21.616Z,11.13
2018-12-12T07:10:52.769Z,10.90
2018-12-12T07:13:23.912Z,11.00
2018-12-12T07:15:55.049Z,11.60
2018-12-12T07:18:25.581Z,10.77
2018-12-12T07:20:56.420Z,10.80
2018-12-12T07:23:26.686Z,10.80
2018-12-12T07:25:57.061Z,10.63
2018-12-12T07:28:27.418Z,10.30
2018-12-12T07:30:58.940Z,10.80
2018-12-12T07:33:29.368Z,11.00
2018-12-12T07:35:59.936Z,10.80
2018-12-12T07:38:32.885Z,10.73
2018-12-12T07:41:03.846Z,10.73
2018-12-12T07:43:36.213Z,10.10
2018-12-12T07:46:12.462Z,10.63
2018-12-12T07:48:45.455Z,10.73
2018-12-12T07:51:37.482Z,10.77
2018-12-12T07:54:14.160Z,9.97
2018-12-12T07:56:45.609Z,10.27
2018-12-12T07:59:16.238Z,10.07
2018-12-12T08:01:46.164Z,10.37
2018-12-12T08:04:16.273Z,10.43
2018-12-12T08:06:46.630Z,10.70
2018-12-12T08:09:17.335Z,10.40
2018-12-12T08:11:48.174Z,10.60
2018-12-12T08:14:18.697Z,10.13
2018-12-12T08:16:49.537Z,10.63
2018-12-12T08:19:19.884Z,9.80
2018-12-12T08:21:49.977Z,9.97
2018-12-12T08:24:20.505Z,10.27
2018-12-12T08:26:50.697Z,10.03
2018-12-12T08:31:50.558Z,9.97
2018-12-12T08:34:21.091Z,9.63
2018-12-12T08:36:51.433Z,9.60
2018-12-12T08:39:21.841Z,10.00
2018-12-12T08:41:52.677Z,10.20
2018-12-12T08:44:23.616Z,10.07
2018-12-12T08:46:53.529Z,9.63
2018-12-12T08:49:23.479Z,10.15
2018-12-12T08:51:53.577Z,10.10
2018-12-12T08:54:24.395Z,10.03
2018-12-12T08:56:55.244Z,10.00
2018-12-12T08:59:25.468Z,9.87
2018-12-12T09:01:55.516Z,9.60
2018-12-12T09:04:25.732Z,10.58
2018-12-12T09:06:56.142Z,10.03
2018-12-12T09:09:26.961Z,9.80
2018-12-12T09:11:57.799Z,9.77
2018-12-12T09:14:28.339Z,10.00
2018-12-12T09:16:59.128Z,9.70
2018-12-12T09:19:30.308Z,9.87
2018-12-12T09:22:01.146Z,9.73
2018-12-12T09:24:31.972Z,10.00
2018-12-12T09:27:02.322Z,9.87
2018-12-12T09:29:32.216Z,9.93
2018-12-12T09:32:04.791Z,9.63
2018-12-12T09:34:37.164Z,9.10
2018-12-12T09:37:07.390Z,10.00
2018-12-12T09:39:38.229Z,10.03
2018-12-12T09:42:09.067Z,9.70
2018-12-12T09:44:40.820Z,9.57
2018-12-12T09:47:11.045Z,9.13
2018-12-12T09:49:41.576Z,9.77
2018-12-12T09:52:14.561Z,9.80
2018-12-12T09:54:46.837Z,9.10
2018-12-12T09:57:17.154Z,9.03
2018-12-12T09:59:47.502Z,9.63
2018-12-12T10:02:16.498Z,10.20
2018-12-12T10:04:47.205Z,9.55
2018-12-12T10:07:16.816Z,9.73
2018-12-12T10:09:47.033Z,10.08
2018-12-12T10:12:16.129Z,9.50
2018-12-12T10:14:46.561Z,9.87
2018-12-12T10:19:46.384Z,9.20
2018-12-12T10:22:16.908Z,9.53
2018-12-12T10:24:47.441Z,9.30
2018-12-12T10:27:17.977Z,9.63
2018-12-12T10:29:48.189Z,9.10
2018-12-12T10:32:18.834Z,8.83
2018-12-12T10:34:49.255Z,9.67
2018-12-12T10:37:19.474Z,9.20
2018-12-12T10:39:49.725Z,9.10
2018-12-12T10:42:20.530Z,9.97
2018-12-12T10:47:20.157Z,9.35
2018-12-12T10:49:50.318Z,9.20
2018-12-12T10:52:20.868Z,9.33
2018-12-12T10:54:51.641Z,9.17
2018-12-12T10:57:22.313Z,9.03
2018-12-12T10:59:53.205Z,9.40
2018-12-12T11:02:29.074Z,9.13
2018-12-12T11:05:00.215Z,9.00
2018-12-12T11:07:30.438Z,9.37
2018-12-12T11:10:00.967Z,9.20
2018-12-12T11:12:33.642Z,8.87
2018-12-12T11:15:03.866Z,8.93
2018-12-12T11:17:34.389Z,9.30
2018-12-12T11:20:05.847Z,9.80
2018-12-12T11:22:36.685Z,10.90
2018-12-12T11:25:07.515Z,11.20
2018-12-12T11:27:38.370Z,12.20
2018-12-12T11:30:08.757Z,12.80
2018-12-12T11:32:39.111Z,12.77
2018-12-12T11:35:09.650Z,12.97
2018-12-12T11:37:39.729Z,13.27
2018-12-12T11:40:10.394Z,13.70
2018-12-12T11:42:40.919Z,13.73
2018-12-12T11:45:11.749Z,13.67
2018-12-12T11:47:42.734Z,13.97
2018-12-12T11:50:13.729Z,13.47
2018-12-12T11:52:44.481Z,13.40
2018-12-12T11:55:14.793Z,14.13
2018-12-12T11:57:45.335Z,13.67
2018-12-12T12:00:15.545Z,13.80
2018-12-12T12:02:46.377Z,12.53
2018-12-12T12:05:16.719Z,13.00
2018-12-12T12:07:47.354Z,11.43
2018-12-12T12:10:17.761Z,11.87
2018-12-12T12:12:47.897Z,12.00
2018-12-12T12:15:18.421Z,11.40
2018-12-12T12:17:49.249Z,11.17
2018-12-12T12:20:19.776Z,11.12
2018-12-12T12:22:50.304Z,10.40
2018-12-12T12:25:20.625Z,10.27
2018-12-12T12:27:51.071Z,11.20
2018-12-12T12:30:21.593Z,10.30
2018-12-12T12:32:52.428Z,10.07
2018-12-12T12:35:22.808Z,10.00
2018-12-12T12:37:53.001Z,10.13
2018-12-12T12:40:23.701Z,9.53
2018-12-12T12:42:53.321Z,9.90
2018-12-12T12:45:23.536Z,9.80
2018-12-12T12:47:53.945Z,9.43
2018-12-12T12:50:24.281Z,9.20
2018-12-12T12:52:55.113Z,9.20
2018-12-12T12:55:26.261Z,9.70
2018-12-12T12:57:56.508Z,9.70
2018-12-12T13:00:27.013Z,9.10
2018-12-12T13:02:57.553Z,9.13
2018-12-12T13:05:27.431Z,9.28
2018-12-12T13:07:57.749Z,8.53
2018-12-12T13:10:28.090Z,8.77
2018-12-12T13:12:58.743Z,9.13
2018-12-12T13:15:28.966Z,8.63
2018-12-12T13:17:59.608Z,9.30
2018-12-12T13:20:30.116Z,8.40
2018-12-12T13:23:02.080Z,8.33
2018-12-12T13:25:32.463Z,8.40
2018-12-12T13:28:03.756Z,8.67
2018-12-12T13:30:34.351Z,8.77
2018-12-12T13:33:04.303Z,8.43
2018-12-12T13:35:34.181Z,8.20
2018-12-12T13:38:04.607Z,8.30
2018-12-12T13:40:35.298Z,8.00
2018-12-12T13:43:05.719Z,8.40
2018-12-12T13:45:35.929Z,7.97
2018-12-12T13:48:07.680Z,7.77
2018-12-12T13:50:38.517Z,7.80
2018-12-12T13:53:09.356Z,7.77
2018-12-12T13:55:40.197Z,7.77
2018-12-12T13:58:10.417Z,7.83
2018-12-12T14:00:40.950Z,7.60
2018-12-12T14:03:11.165Z,7.67
2018-12-12T14:05:41.697Z,7.40
2018-12-12T14:08:12.223Z,8.10
2018-12-12T14:10:43.066Z,7.87
2018-12-12T14:13:13.365Z,7.77
2018-12-12T14:15:43.328Z,8.07
2018-12-12T14:18:13.120Z,7.93
2018-12-12T14:20:44.272Z,8.73
2018-12-12T14:23:15.109Z,11.10
2018-12-12T14:25:46.239Z,12.30
2018-12-12T14:28:16.771Z,11.80
2018-12-12T14:30:46.983Z,11.17
2018-12-12T14:33:17.537Z,11.20
2018-12-12T14:35:48.049Z,10.80
2018-12-12T14:38:18.574Z,11.53
2018-12-12T14:40:48.877Z,10.90
2018-12-12T14:43:19.024Z,11.40
2018-12-12T14:45:50.478Z,10.97
2018-12-12T14:48:21.114Z,11.43
2018-12-12T14:50:51.529Z,11.30
2018-12-12T14:53:21.553Z,11.20
2018-12-12T14:55:51.669Z,10.83
2018-12-12T14:58:22.193Z,12.00
2018-12-12T15:00:53.341Z,12.50
2018-12-12T15:03:24.790Z,12.37
2018-12-12T15:05:55.443Z,12.07
2018-12-12T15:08:26.294Z,13.10
2018-12-12T15:10:55.776Z,12.40
2018-12-12T15:13:27.662Z,13.30
2018-12-12T15:15:58.665Z,13.03
2018-12-12T15:18:29.198Z,12.60
2018-12-12T15:21:00.346Z,13.30
2018-12-12T15:23:30.870Z,12.10
2018-12-12T15:26:01.705Z,12.90
2018-12-12T15:28:32.235Z,13.30
2018-12-12T15:31:02.956Z,13.00
2018-12-12T15:33:33.293Z,13.03
2018-12-12T15:36:03.820Z,13.87
2018-12-12T15:38:34.657Z,12.80
2018-12-12T15:41:05.498Z,13.00
2018-12-12T15:43:36.020Z,13.13
2018-12-12T15:46:06.553Z,12.67
2018-12-12T15:48:37.085Z,12.80
2018-12-12T15:51:07.624Z,12.67
2018-12-12T15:53:38.144Z,13.55
2018-12-12T15:56:08.670Z,12.63
2018-12-12T15:58:39.507Z,12.80
2018-12-12T16:01:10.033Z,13.13
2018-12-12T16:03:40.080Z,13.10
2018-12-12T16:06:10.487Z,12.70
2018-12-12T16:08:41.327Z,13.67
2018-12-12T16:11:11.856Z,13.13
2018-12-12T16:13:42.065Z,12.57
2018-12-12T16:16:12.601Z,13.67
2018-12-12T16:18:43.741Z,14.10
2018-12-12T16:21:14.574Z,13.63
2018-12-12T16:23:45.126Z,13.27
2018-12-12T16:26:15.635Z,13.50
2018-12-12T16:28:45.856Z,13.27
2018-12-12T16:31:16.566Z,13.40
2018-12-12T16:33:47.650Z,12.83
2018-12-12T16:36:18.876Z,13.27
2018-12-12T16:38:49.621Z,13.17
2018-12-12T16:41:19.555Z,12.87
2018-12-12T16:43:49.649Z,12.87
2018-12-12T16:46:22.026Z,12.57
2018-12-12T16:48:54.250Z,12.37
2018-12-12T16:51:24.770Z,12.10
2018-12-12T16:53:55.450Z,12.30
2018-12-12T16:56:26.027Z,12.00
2018-12-12T16:58:56.826Z,11.90
2018-12-12T17:01:27.173Z,12.60
2018-12-12T17:03:58.189Z,11.97
2018-12-12T17:06:29.072Z,11.80
2018-12-12T17:08:59.245Z,11.17
2018-12-12T17:11:30.083Z,10.57
2018-12-12T17:14:00.590Z,11.13
2018-12-12T17:16:32.061Z,11.27
2018-12-12T17:19:02.424Z,10.87
2018-12-12T17:21:33.129Z,11.07
2018-12-12T17:24:04.266Z,10.77
2018-12-12T17:26:35.125Z,10.60
2018-12-12T17:29:05.625Z,10.67
2018-12-12T17:31:36.114Z,10.33
2018-12-12T17:34:06.697Z,10.67
2018-12-12T17:36:36.921Z,10.73
2018-12-12T17:39:08.135Z,10.27
2018-12-12T17:41:39.266Z,10.63
2018-12-12T17:44:09.102Z,10.37
2018-12-12T17:46:39.346Z,9.80
2018-12-12T17:49:09.546Z,9.90
2018-12-12T17:51:39.669Z,9.93
2018-12-12T17:54:10.004Z,9.67
2018-12-12T17:56:40.317Z,10.00
2018-12-12T17:59:11.395Z,9.83
2018-12-12T18:01:41.277Z,10.00
2018-12-12T18:04:13.969Z,10.50
2018-12-12T18:06:47.353Z,9.53
2018-12-12T18:09:18.408Z,9.77
2018-12-12T18:11:49.257Z,9.73
2018-12-12T18:14:19.469Z,9.37
2018-12-12T18:16:51.612Z,9.30
2018-12-12T18:19:21.537Z,9.70
2018-12-12T18:21:52.080Z,10.00
2018-12-12T18:24:25.665Z,9.00
2018-12-12T18:26:57.126Z,9.30
2018-12-12T18:29:27.316Z,8.87
2018-12-12T18:31:59.420Z,9.00
2018-12-12T18:34:50.832Z,8.33
2018-12-12T18:37:21.659Z,9.03
2018-12-12T18:39:51.574Z,9.07
2018-12-12T18:42:23.644Z,8.77
2018-12-12T18:44:55.805Z,8.67
2018-12-12T18:47:25.752Z,8.80
2018-12-12T18:49:56.153Z,8.73
2018-12-12T18:52:29.589Z,8.33
2018-12-12T18:54:59.482Z,8.80
2018-12-12T18:57:32.344Z,8.53
2018-12-12T19:00:02.876Z,8.60
2018-12-12T19:02:33.400Z,8.87
2018-12-12T19:05:03.949Z,8.20
2018-12-12T19:07:34.206Z,8.07
2018-12-12T19:10:04.994Z,8.30
2018-12-12T19:12:35.524Z,8.27
2018-12-12T19:15:07.913Z,8.40
2018-12-12T19:17:38.092Z,7.80
2018-12-12T19:20:08.731Z,7.70
2018-12-12T19:22:39.169Z,7.63
2018-12-12T19:25:10.030Z,7.50
2018-12-12T19:27:40.459Z,8.27
2018-12-12T19:30:10.960Z,7.93
2018-12-12T19:32:41.184Z,7.73
2018-12-12T19:35:11.866Z,7.80
2018-12-12T19:37:42.181Z,7.77
2018-12-12T19:40:13.202Z,7.83
2018-12-12T19:42:43.319Z,7.50
2018-12-12T19:45:13.630Z,7.97
2018-12-12T19:47:44.063Z,7.90
2018-12-12T19:50:14.898Z,7.80
2018-12-12T19:52:46.392Z,7.70
2018-12-12T19:55:17.177Z,7.70
2018-12-12T19:57:47.713Z,7.30
2018-12-12T20:00:18.245Z,7.60
2018-12-12T20:05:18.373Z,7.60
2018-12-12T20:07:49.218Z,7.33
2018-12-12T20:10:20.054Z,8.00
2018-12-12T20:12:50.892Z,7.60
2018-12-12T20:15:26.665Z,7.43
2018-12-12T20:17:57.166Z,7.60
2018-12-12T20:20:28.662Z,7.40
2018-12-12T20:22:59.773Z,7.63
2018-12-12T20:25:29.647Z,7.63
2018-12-12T20:27:59.778Z,7.93
2018-12-12T20:30:35.363Z,7.77
2018-12-12T20:33:03.846Z,7.30
2018-12-12T20:35:34.040Z,7.50
2018-12-12T20:38:04.600Z,7.80
2018-12-12T20:40:34.922Z,7.47
2018-12-12T20:43:05.520Z,7.70
2018-12-12T20:45:35.862Z,7.70
2018-12-12T20:48:06.386Z,7.40
2018-12-12T20:50:37.833Z,7.27
2018-12-12T20:53:08.378Z,8.10
2018-12-12T20:55:39.520Z,7.50
2018-12-12T20:58:10.342Z,7.60
2018-12-12T21:00:40.877Z,7.67
2018-12-12T21:05:40.821Z,7.50
2018-12-12T21:08:12.162Z,7.87
2018-12-12T21:10:42.515Z,7.80
2018-12-12T21:13:12.915Z,7.67
2018-12-12T21:15:48.046Z,7.50
2018-12-12T21:18:19.394Z,7.70
2018-12-12T21:20:49.714Z,7.33
2018-12-12T21:23:20.668Z,7.10
2018-12-12T21:25:51.529Z,7.87
2018-12-12T21:28:21.914Z,7.43
2018-12-12T21:30:52.478Z,7.83
2018-12-12T21:33:23.281Z,7.17
2018-12-12T21:35:54.130Z,7.53
2018-12-12T21:38:25.584Z,7.60
2018-12-12T21:40:55.874Z,7.43
2018-12-12T21:43:26.058Z,7.83
2018-12-12T21:45:57.192Z,7.73
2018-12-12T21:48:27.701Z,7.80
2018-12-12T21:50:57.770Z,8.07
2018-12-12T21:53:28.454Z,8.23
2018-12-12T21:55:59.906Z,7.97
2018-12-12T21:58:30.731Z,8.33
2018-12-12T22:01:01.159Z,8.10
2018-12-12T22:03:31.306Z,8.07
2018-12-12T22:06:07.526Z,8.00
2018-12-12T22:08:34.314Z,8.30
2018-12-12T22:11:04.936Z,8.60
2018-12-12T22:13:35.467Z,8.43
2018-12-12T22:16:05.705Z,8.20
2018-12-12T22:18:35.917Z,8.50
2018-12-12T22:21:06.520Z,7.90
2018-12-12T22:23:36.982Z,8.37
2018-12-12T22:26:07.522Z,8.70
2018-12-12T22:28:37.728Z,8.33
2018-12-12T22:31:09.826Z,8.00
2018-12-12T22:33:40.013Z,8.47
2018-12-12T22:36:14.161Z,8.63
2018-12-12T22:38:43.237Z,8.13
2018-12-12T22:41:14.713Z,8.17
2018-12-12T22:43:45.812Z,8.40
2018-12-12T22:46:16.349Z,8.33
2018-12-12T22:48:46.953Z,8.20
2018-12-12T22:51:17.348Z,8.37
2018-12-12T22:53:48.244Z,8.00
2018-12-12T22:56:19.091Z,8.10
2018-12-12T22:58:49.590Z,8.27
2018-12-12T23:01:24.499Z,8.30
2018-12-12T23:03:54.726Z,8.03
2018-12-12T23:06:24.888Z,7.80
2018-12-12T23:08:55.728Z,7.33
2018-12-12T23:11:26.857Z,7.77
2018-12-12T23:13:57.686Z,7.90
2018-12-12T23:16:28.470Z,7.57
2018-12-12T23:18:59.367Z,7.60
2018-12-12T23:21:29.898Z,7.23
2018-12-12T23:24:00.732Z,8.07
2018-12-12T23:26:31.279Z,7.80
2018-12-12T23:29:01.609Z,7.63
2018-12-12T23:31:32.624Z,7.30
2018-12-12T23:34:02.531Z,7.60
2018-12-12T23:36:32.765Z,7.67
2018-12-12T23:39:03.908Z,7.33
2018-12-12T23:41:35.050Z,7.10
2018-12-12T23:44:05.377Z,6.97
2018-12-12T23:46:35.306Z,7.10
2018-12-12T23:49:07.148Z,7.27
2018-12-12T23:51:37.481Z,7.30
2018-12-12T23:54:08.002Z,7.13
2018-12-12T23:56:38.281Z,6.60
2018-12-12T23:59:08.230Z,6.90
